sensor_id;sensor_type;location;lat;lon;timestamp;P1;durP1;ratioP1;P2;durP2;ratioP2
44536;SDS011;30245;51.966;6.292;2024-01-06T00:01:22;8.70;;;5.87;;
44536;SDS011;30245;51.966;6.292;2024-01-06T00:03:48;8.47;;;5.93;;
44536;SDS011;30245;51.966;6.292;2024-01-06T00:06:14;9.03;;;6.63;;
44536;SDS011;30245;51.966;6.292;2024-01-06T00:08:39;7.93;;;6.33;;
44536;SDS011;30245;51.966;6.292;2024-01-06T00:11:05;9.73;;;6.90;;
44536;SDS011;30245;51.966;6.292;2024-01-06T00:13:31;9.77;;;6.57;;
44536;SDS011;30245;51.966;6.292;2024-01-06T00:15:56;11.17;;;7.40;;
44536;SDS011;30245;51.966;6.292;2024-01-06T00:18:22;11.20;;;7.63;;
44536;SDS011;30245;51.966;6.292;2024-01-06T00:20:47;9.30;;;6.53;;
44536;SDS011;30245;51.966;6.292;2024-01-06T00:23:13;8.80;;;6.17;;
44536;SDS011;30245;51.966;6.292;2024-01-06T00:25:39;9.40;;;5.40;;
44536;SDS011;30245;51.966;6.292;2024-01-06T00:28:04;8.57;;;6.27;;
44536;SDS011;30245;51.966;6.292;2024-01-06T00:30:30;9.60;;;6.10;;
44536;SDS011;30245;51.966;6.292;2024-01-06T00:32:55;7.70;;;6.20;;
44536;SDS011;30245;51.966;6.292;2024-01-06T00:35:21;6.40;;;4.87;;
44536;SDS011;30245;51.966;6.292;2024-01-06T00:37:47;8.73;;;6.07;;
44536;SDS011;30245;51.966;6.292;2024-01-06T00:40:12;6.70;;;5.17;;
44536;SDS011;30245;51.966;6.292;2024-01-06T00:42:38;8.30;;;5.47;;
44536;SDS011;30245;51.966;6.292;2024-01-06T00:45:03;9.63;;;6.20;;
44536;SDS011;30245;51.966;6.292;2024-01-06T00:47:30;8.03;;;4.97;;
44536;SDS011;30245;51.966;6.292;2024-01-06T00:49:56;8.30;;;5.23;;
44536;SDS011;30245;51.966;6.292;2024-01-06T00:52:21;7.57;;;4.00;;
44536;SDS011;30245;51.966;6.292;2024-01-06T00:54:47;8.17;;;5.37;;
44536;SDS011;30245;51.966;6.292;2024-01-06T00:57:12;7.00;;;4.33;;
44536;SDS011;30245;51.966;6.292;2024-01-06T00:59:38;8.43;;;5.87;;
44536;SDS011;30245;51.966;6.292;2024-01-06T01:02:04;7.37;;;5.30;;
44536;SDS011;30245;51.966;6.292;2024-01-06T01:04:29;9.03;;;5.30;;
44536;SDS011;30245;51.966;6.292;2024-01-06T01:06:55;8.33;;;5.57;;
44536;SDS011;30245;51.966;6.292;2024-01-06T01:09:20;10.63;;;6.13;;
44536;SDS011;30245;51.966;6.292;2024-01-06T01:11:46;8.07;;;5.93;;
44536;SDS011;30245;51.966;6.292;2024-01-06T01:14:11;9.77;;;5.67;;
44536;SDS011;30245;51.966;6.292;2024-01-06T01:16:37;9.53;;;7.00;;
44536;SDS011;30245;51.966;6.292;2024-01-06T01:19:03;10.27;;;6.20;;
44536;SDS011;30245;51.966;6.292;2024-01-06T01:21:28;8.10;;;5.47;;
44536;SDS011;30245;51.966;6.292;2024-01-06T01:23:54;10.43;;;6.07;;
44536;SDS011;30245;51.966;6.292;2024-01-06T01:26:19;11.87;;;7.43;;
44536;SDS011;30245;51.966;6.292;2024-01-06T01:28:45;9.83;;;6.83;;
44536;SDS011;30245;51.966;6.292;2024-01-06T01:31:11;10.30;;;7.07;;
44536;SDS011;30245;51.966;6.292;2024-01-06T01:33:38;12.37;;;7.90;;
44536;SDS011;30245;51.966;6.292;2024-01-06T01:36:04;13.43;;;8.57;;
44536;SDS011;30245;51.966;6.292;2024-01-06T01:38:29;12.90;;;8.37;;
44536;SDS011;30245;51.966;6.292;2024-01-06T01:40:55;16.93;;;10.10;;
44536;SDS011;30245;51.966;6.292;2024-01-06T01:43:21;10.00;;;8.20;;
44536;SDS011;30245;51.966;6.292;2024-01-06T01:45:48;13.33;;;9.10;;
44536;SDS011;30245;51.966;6.292;2024-01-06T01:48:18;12.07;;;8.70;;
44536;SDS011;30245;51.966;6.292;2024-01-06T01:50:44;12.30;;;8.80;;
44536;SDS011;30245;51.966;6.292;2024-01-06T01:53:11;12.50;;;9.07;;
44536;SDS011;30245;51.966;6.292;2024-01-06T01:55:38;11.97;;;8.30;;
44536;SDS011;30245;51.966;6.292;2024-01-06T01:58:04;13.63;;;9.70;;
44536;SDS011;30245;51.966;6.292;2024-01-06T02:00:31;11.53;;;8.43;;
44536;SDS011;30245;51.966;6.292;2024-01-06T02:02:56;16.07;;;11.03;;
44536;SDS011;30245;51.966;6.292;2024-01-06T02:05:24;12.87;;;9.40;;
44536;SDS011;30245;51.966;6.292;2024-01-06T02:07:50;12.07;;;8.17;;
44536;SDS011;30245;51.966;6.292;2024-01-06T02:10:16;10.00;;;8.30;;
44536;SDS011;30245;51.966;6.292;2024-01-06T02:12:42;11.37;;;8.70;;
44536;SDS011;30245;51.966;6.292;2024-01-06T02:15:08;13.23;;;9.63;;
44536;SDS011;30245;51.966;6.292;2024-01-06T02:17:33;11.33;;;7.40;;
44536;SDS011;30245;51.966;6.292;2024-01-06T02:19:59;10.07;;;7.30;;
44536;SDS011;30245;51.966;6.292;2024-01-06T02:22:25;11.57;;;7.87;;
44536;SDS011;30245;51.966;6.292;2024-01-06T02:24:50;12.47;;;8.37;;
44536;SDS011;30245;51.966;6.292;2024-01-06T02:27:16;10.60;;;8.17;;
44536;SDS011;30245;51.966;6.292;2024-01-06T02:29:41;13.10;;;9.50;;
44536;SDS011;30245;51.966;6.292;2024-01-06T02:32:07;13.77;;;8.77;;
44536;SDS011;30245;51.966;6.292;2024-01-06T02:34:32;10.13;;;7.93;;
44536;SDS011;30245;51.966;6.292;2024-01-06T02:36:59;11.73;;;8.07;;
44536;SDS011;30245;51.966;6.292;2024-01-06T02:39:25;11.20;;;6.60;;
44536;SDS011;30245;51.966;6.292;2024-01-06T02:41:50;12.10;;;7.33;;
44536;SDS011;30245;51.966;6.292;2024-01-06T02:44:16;8.70;;;6.80;;
44536;SDS011;30245;51.966;6.292;2024-01-06T02:46:41;11.53;;;7.30;;
44536;SDS011;30245;51.966;6.292;2024-01-06T02:49:07;11.30;;;7.30;;
44536;SDS011;30245;51.966;6.292;2024-01-06T02:51:33;13.00;;;8.57;;
44536;SDS011;30245;51.966;6.292;2024-01-06T02:53:59;11.83;;;8.17;;
44536;SDS011;30245;51.966;6.292;2024-01-06T02:56:24;10.60;;;7.37;;
44536;SDS011;30245;51.966;6.292;2024-01-06T02:58:50;10.93;;;7.60;;
44536;SDS011;30245;51.966;6.292;2024-01-06T03:01:16;8.30;;;6.07;;
44536;SDS011;30245;51.966;6.292;2024-01-06T03:03:42;14.37;;;9.30;;
44536;SDS011;30245;51.966;6.292;2024-01-06T03:06:08;12.33;;;7.50;;
44536;SDS011;30245;51.966;6.292;2024-01-06T03:08:34;10.23;;;7.73;;
44536;SDS011;30245;51.966;6.292;2024-01-06T03:10:59;9.40;;;6.60;;
44536;SDS011;30245;51.966;6.292;2024-01-06T03:13:27;11.37;;;8.13;;
44536;SDS011;30245;51.966;6.292;2024-01-06T03:15:52;9.40;;;7.03;;
44536;SDS011;30245;51.966;6.292;2024-01-06T03:18:18;12.07;;;8.10;;
44536;SDS011;30245;51.966;6.292;2024-01-06T03:20:43;13.20;;;7.77;;
44536;SDS011;30245;51.966;6.292;2024-01-06T03:23:09;8.53;;;6.80;;
44536;SDS011;30245;51.966;6.292;2024-01-06T03:25:34;11.00;;;8.17;;
44536;SDS011;30245;51.966;6.292;2024-01-06T03:28:00;8.67;;;7.07;;
44536;SDS011;30245;51.966;6.292;2024-01-06T03:30:26;9.17;;;7.13;;
44536;SDS011;30245;51.966;6.292;2024-01-06T03:32:51;10.93;;;7.30;;
44536;SDS011;30245;51.966;6.292;2024-01-06T03:35:18;9.53;;;7.03;;
44536;SDS011;30245;51.966;6.292;2024-01-06T03:37:43;9.87;;;6.57;;
44536;SDS011;30245;51.966;6.292;2024-01-06T03:40:09;7.80;;;6.10;;
44536;SDS011;30245;51.966;6.292;2024-01-06T03:42:35;9.30;;;6.43;;
44536;SDS011;30245;51.966;6.292;2024-01-06T03:45:02;10.70;;;7.53;;
44536;SDS011;30245;51.966;6.292;2024-01-06T03:47:28;9.63;;;6.53;;
44536;SDS011;30245;51.966;6.292;2024-01-06T03:49:54;10.50;;;6.67;;
44536;SDS011;30245;51.966;6.292;2024-01-06T03:52:19;10.00;;;7.73;;
44536;SDS011;30245;51.966;6.292;2024-01-06T03:54:45;12.90;;;6.43;;
44536;SDS011;30245;51.966;6.292;2024-01-06T03:57:10;12.93;;;8.53;;
44536;SDS011;30245;51.966;6.292;2024-01-06T03:59:36;14.83;;;9.80;;
44536;SDS011;30245;51.966;6.292;2024-01-06T04:02:01;13.17;;;9.33;;
44536;SDS011;30245;51.966;6.292;2024-01-06T04:04:27;12.73;;;8.30;;
44536;SDS011;30245;51.966;6.292;2024-01-06T04:06:52;11.93;;;8.30;;
44536;SDS011;30245;51.966;6.292;2024-01-06T04:09:18;14.37;;;9.10;;
44536;SDS011;30245;51.966;6.292;2024-01-06T04:11:43;15.47;;;8.77;;
44536;SDS011;30245;51.966;6.292;2024-01-06T04:14:09;12.93;;;8.23;;
44536;SDS011;30245;51.966;6.292;2024-01-06T04:16:35;13.60;;;8.60;;
44536;SDS011;30245;51.966;6.292;2024-01-06T04:19:00;16.13;;;9.43;;
44536;SDS011;30245;51.966;6.292;2024-01-06T04:21:26;19.97;;;10.47;;
44536;SDS011;30245;51.966;6.292;2024-01-06T04:23:51;18.17;;;10.33;;
44536;SDS011;30245;51.966;6.292;2024-01-06T04:26:17;15.10;;;9.50;;
44536;SDS011;30245;51.966;6.292;2024-01-06T04:28:42;19.50;;;11.00;;
44536;SDS011;30245;51.966;6.292;2024-01-06T04:31:08;19.77;;;11.90;;
44536;SDS011;30245;51.966;6.292;2024-01-06T04:33:34;21.63;;;12.70;;
44536;SDS011;30245;51.966;6.292;2024-01-06T04:36:01;17.80;;;12.10;;
44536;SDS011;30245;51.966;6.292;2024-01-06T04:38:26;20.97;;;10.60;;
44536;SDS011;30245;51.966;6.292;2024-01-06T04:40:52;24.07;;;12.80;;
44536;SDS011;30245;51.966;6.292;2024-01-06T04:43:18;23.70;;;13.73;;
44536;SDS011;30245;51.966;6.292;2024-01-06T04:45:43;20.30;;;11.70;;
44536;SDS011;30245;51.966;6.292;2024-01-06T04:48:09;23.00;;;11.87;;
44536;SDS011;30245;51.966;6.292;2024-01-06T04:50:34;19.13;;;10.00;;
44536;SDS011;30245;51.966;6.292;2024-01-06T04:53:00;23.40;;;11.63;;
44536;SDS011;30245;51.966;6.292;2024-01-06T04:55:25;21.83;;;12.57;;
44536;SDS011;30245;51.966;6.292;2024-01-06T04:57:51;25.17;;;13.80;;
44536;SDS011;30245;51.966;6.292;2024-01-06T05:00:16;25.23;;;13.47;;
44536;SDS011;30245;51.966;6.292;2024-01-06T05:02:42;18.67;;;11.50;;
44536;SDS011;30245;51.966;6.292;2024-01-06T05:05:08;19.63;;;12.20;;
44536;SDS011;30245;51.966;6.292;2024-01-06T05:07:33;23.90;;;13.00;;
44536;SDS011;30245;51.966;6.292;2024-01-06T05:09:59;24.90;;;14.73;;
44536;SDS011;30245;51.966;6.292;2024-01-06T05:12:24;26.33;;;15.80;;
44536;SDS011;30245;51.966;6.292;2024-01-06T05:14:50;24.40;;;15.53;;
44536;SDS011;30245;51.966;6.292;2024-01-06T05:17:15;27.03;;;15.40;;
44536;SDS011;30245;51.966;6.292;2024-01-06T05:19:41;25.33;;;15.27;;
44536;SDS011;30245;51.966;6.292;2024-01-06T05:22:07;33.70;;;17.07;;
44536;SDS011;30245;51.966;6.292;2024-01-06T05:24:32;24.47;;;14.43;;
44536;SDS011;30245;51.966;6.292;2024-01-06T05:26:58;24.13;;;13.77;;
44536;SDS011;30245;51.966;6.292;2024-01-06T05:29:23;23.80;;;13.80;;
44536;SDS011;30245;51.966;6.292;2024-01-06T05:31:51;26.30;;;15.33;;
44536;SDS011;30245;51.966;6.292;2024-01-06T05:34:16;29.80;;;16.40;;
44536;SDS011;30245;51.966;6.292;2024-01-06T05:36:42;27.30;;;15.33;;
44536;SDS011;30245;51.966;6.292;2024-01-06T05:39:07;30.87;;;15.07;;
44536;SDS011;30245;51.966;6.292;2024-01-06T05:41:39;24.13;;;14.00;;
44536;SDS011;30245;51.966;6.292;2024-01-06T05:44:05;25.37;;;14.50;;
44536;SDS011;30245;51.966;6.292;2024-01-06T05:46:31;23.33;;;13.63;;
44536;SDS011;30245;51.966;6.292;2024-01-06T05:48:57;22.67;;;14.60;;
44536;SDS011;30245;51.966;6.292;2024-01-06T05:51:22;21.80;;;13.67;;
44536;SDS011;30245;51.966;6.292;2024-01-06T05:53:48;26.07;;;16.37;;
44536;SDS011;30245;51.966;6.292;2024-01-06T05:56:23;22.73;;;13.27;;
44536;SDS011;30245;51.966;6.292;2024-01-06T05:58:50;25.50;;;15.03;;
44536;SDS011;30245;51.966;6.292;2024-01-06T06:01:16;28.47;;;15.90;;
44536;SDS011;30245;51.966;6.292;2024-01-06T06:03:42;26.73;;;15.33;;
44536;SDS011;30245;51.966;6.292;2024-01-06T06:06:08;22.40;;;13.60;;
44536;SDS011;30245;51.966;6.292;2024-01-06T06:08:33;22.97;;;14.23;;
44536;SDS011;30245;51.966;6.292;2024-01-06T06:10:59;23.47;;;13.63;;
44536;SDS011;30245;51.966;6.292;2024-01-06T06:13:27;24.03;;;14.20;;
44536;SDS011;30245;51.966;6.292;2024-01-06T06:15:53;24.03;;;13.50;;
44536;SDS011;30245;51.966;6.292;2024-01-06T06:18:19;21.07;;;13.30;;
44536;SDS011;30245;51.966;6.292;2024-01-06T06:20:45;21.60;;;12.77;;
44536;SDS011;30245;51.966;6.292;2024-01-06T06:23:11;20.93;;;12.50;;
44536;SDS011;30245;51.966;6.292;2024-01-06T06:25:38;19.57;;;12.00;;
44536;SDS011;30245;51.966;6.292;2024-01-06T06:28:05;19.53;;;12.07;;
44536;SDS011;30245;51.966;6.292;2024-01-06T06:30:31;21.10;;;10.93;;
44536;SDS011;30245;51.966;6.292;2024-01-06T06:32:57;18.97;;;12.33;;
44536;SDS011;30245;51.966;6.292;2024-01-06T06:35:23;17.70;;;11.27;;
44536;SDS011;30245;51.966;6.292;2024-01-06T06:37:49;19.40;;;11.37;;
44536;SDS011;30245;51.966;6.292;2024-01-06T06:40:15;17.27;;;10.60;;
44536;SDS011;30245;51.966;6.292;2024-01-06T06:42:41;15.33;;;10.90;;
44536;SDS011;30245;51.966;6.292;2024-01-06T06:45:06;16.83;;;9.43;;
44536;SDS011;30245;51.966;6.292;2024-01-06T06:47:32;17.37;;;10.27;;
44536;SDS011;30245;51.966;6.292;2024-01-06T06:49:58;17.37;;;10.90;;
44536;SDS011;30245;51.966;6.292;2024-01-06T06:52:23;16.60;;;10.23;;
44536;SDS011;30245;51.966;6.292;2024-01-06T06:54:49;16.13;;;9.93;;
44536;SDS011;30245;51.966;6.292;2024-01-06T06:57:15;16.00;;;9.67;;
44536;SDS011;30245;51.966;6.292;2024-01-06T06:59:41;19.10;;;10.87;;
44536;SDS011;30245;51.966;6.292;2024-01-06T07:02:06;15.93;;;9.37;;
44536;SDS011;30245;51.966;6.292;2024-01-06T07:04:32;14.17;;;8.93;;
44536;SDS011;30245;51.966;6.292;2024-01-06T07:06:58;13.93;;;8.93;;
44536;SDS011;30245;51.966;6.292;2024-01-06T07:09:23;17.93;;;10.67;;
44536;SDS011;30245;51.966;6.292;2024-01-06T07:11:49;17.20;;;10.07;;
44536;SDS011;30245;51.966;6.292;2024-01-06T07:14:15;16.13;;;10.33;;
44536;SDS011;30245;51.966;6.292;2024-01-06T07:16:41;15.83;;;10.73;;
44536;SDS011;30245;51.966;6.292;2024-01-06T07:19:06;17.87;;;9.83;;
44536;SDS011;30245;51.966;6.292;2024-01-06T07:21:32;16.80;;;12.07;;
44536;SDS011;30245;51.966;6.292;2024-01-06T07:23:57;23.83;;;11.97;;
44536;SDS011;30245;51.966;6.292;2024-01-06T07:26:23;18.67;;;10.00;;
44536;SDS011;30245;51.966;6.292;2024-01-06T07:28:49;15.37;;;9.60;;
44536;SDS011;30245;51.966;6.292;2024-01-06T07:31:14;16.57;;;9.27;;
44536;SDS011;30245;51.966;6.292;2024-01-06T07:33:42;18.20;;;10.50;;
44536;SDS011;30245;51.966;6.292;2024-01-06T07:36:07;14.40;;;9.37;;
44536;SDS011;30245;51.966;6.292;2024-01-06T07:38:33;19.53;;;10.53;;
44536;SDS011;30245;51.966;6.292;2024-01-06T07:40:59;17.17;;;10.00;;
44536;SDS011;30245;51.966;6.292;2024-01-06T07:43:24;13.17;;;8.63;;
44536;SDS011;30245;51.966;6.292;2024-01-06T07:45:50;17.67;;;9.37;;
44536;SDS011;30245;51.966;6.292;2024-01-06T07:48:16;16.60;;;8.93;;
44536;SDS011;30245;51.966;6.292;2024-01-06T07:50:41;15.07;;;10.30;;
44536;SDS011;30245;51.966;6.292;2024-01-06T07:53:07;13.67;;;8.80;;
44536;SDS011;30245;51.966;6.292;2024-01-06T07:55:33;12.90;;;8.13;;
44536;SDS011;30245;51.966;6.292;2024-01-06T07:57:58;13.90;;;8.77;;
44536;SDS011;30245;51.966;6.292;2024-01-06T08:00:24;19.67;;;9.70;;
44536;SDS011;30245;51.966;6.292;2024-01-06T08:02:50;16.83;;;9.70;;
44536;SDS011;30245;51.966;6.292;2024-01-06T08:05:16;17.53;;;9.23;;
44536;SDS011;30245;51.966;6.292;2024-01-06T08:07:41;15.80;;;8.70;;
44536;SDS011;30245;51.966;6.292;2024-01-06T08:10:07;12.27;;;8.23;;
44536;SDS011;30245;51.966;6.292;2024-01-06T08:12:33;12.17;;;9.00;;
44536;SDS011;30245;51.966;6.292;2024-01-06T08:14:59;12.83;;;8.43;;
44536;SDS011;30245;51.966;6.292;2024-01-06T08:17:25;14.93;;;8.93;;
44536;SDS011;30245;51.966;6.292;2024-01-06T08:19:50;12.93;;;8.47;;
44536;SDS011;30245;51.966;6.292;2024-01-06T08:22:16;17.97;;;9.57;;
44536;SDS011;30245;51.966;6.292;2024-01-06T08:24:41;15.73;;;10.00;;
44536;SDS011;30245;51.966;6.292;2024-01-06T08:27:07;14.80;;;9.50;;
44536;SDS011;30245;51.966;6.292;2024-01-06T08:29:33;13.70;;;8.80;;
44536;SDS011;30245;51.966;6.292;2024-01-06T08:31:59;15.07;;;8.73;;
44536;SDS011;30245;51.966;6.292;2024-01-06T08:34:25;14.60;;;8.97;;
44536;SDS011;30245;51.966;6.292;2024-01-06T08:36:50;13.33;;;8.80;;
44536;SDS011;30245;51.966;6.292;2024-01-06T08:39:16;13.57;;;8.73;;
44536;SDS011;30245;51.966;6.292;2024-01-06T08:41:42;16.70;;;9.03;;
44536;SDS011;30245;51.966;6.292;2024-01-06T08:44:07;14.27;;;8.13;;
44536;SDS011;30245;51.966;6.292;2024-01-06T08:46:33;12.43;;;8.40;;
44536;SDS011;30245;51.966;6.292;2024-01-06T08:48:59;13.73;;;7.37;;
44536;SDS011;30245;51.966;6.292;2024-01-06T08:51:25;14.60;;;7.53;;
44536;SDS011;30245;51.966;6.292;2024-01-06T08:53:51;13.80;;;7.93;;
44536;SDS011;30245;51.966;6.292;2024-01-06T08:56:17;13.73;;;8.63;;
44536;SDS011;30245;51.966;6.292;2024-01-06T08:58:43;10.87;;;7.77;;
44536;SDS011;30245;51.966;6.292;2024-01-06T09:01:08;16.87;;;9.43;;
44536;SDS011;30245;51.966;6.292;2024-01-06T09:03:34;13.37;;;7.67;;
44536;SDS011;30245;51.966;6.292;2024-01-06T09:06:00;13.67;;;7.83;;
44536;SDS011;30245;51.966;6.292;2024-01-06T09:08:25;13.73;;;8.03;;
44536;SDS011;30245;51.966;6.292;2024-01-06T09:10:51;14.57;;;8.97;;
44536;SDS011;30245;51.966;6.292;2024-01-06T09:13:20;17.27;;;10.97;;
44536;SDS011;30245;51.966;6.292;2024-01-06T09:15:46;17.23;;;10.10;;
44536;SDS011;30245;51.966;6.292;2024-01-06T09:18:12;19.10;;;9.80;;
44536;SDS011;30245;51.966;6.292;2024-01-06T09:20:38;18.30;;;10.33;;
44536;SDS011;30245;51.966;6.292;2024-01-06T09:23:03;16.63;;;9.80;;
44536;SDS011;30245;51.966;6.292;2024-01-06T09:25:29;18.07;;;10.60;;
44536;SDS011;30245;51.966;6.292;2024-01-06T09:27:55;19.13;;;10.67;;
44536;SDS011;30245;51.966;6.292;2024-01-06T09:30:20;15.67;;;9.10;;
44536;SDS011;30245;51.966;6.292;2024-01-06T09:32:46;15.97;;;8.87;;
44536;SDS011;30245;51.966;6.292;2024-01-06T09:35:12;15.43;;;9.60;;
44536;SDS011;30245;51.966;6.292;2024-01-06T09:37:37;14.90;;;9.10;;
44536;SDS011;30245;51.966;6.292;2024-01-06T09:40:03;15.37;;;9.07;;
44536;SDS011;30245;51.966;6.292;2024-01-06T09:42:29;17.30;;;9.27;;
44536;SDS011;30245;51.966;6.292;2024-01-06T09:44:54;15.63;;;8.67;;
44536;SDS011;30245;51.966;6.292;2024-01-06T09:47:21;16.27;;;9.57;;
44536;SDS011;30245;51.966;6.292;2024-01-06T09:49:48;15.53;;;9.73;;
44536;SDS011;30245;51.966;6.292;2024-01-06T09:52:15;15.20;;;9.27;;
44536;SDS011;30245;51.966;6.292;2024-01-06T09:54:52;14.77;;;9.23;;
44536;SDS011;30245;51.966;6.292;2024-01-06T09:57:20;18.90;;;11.07;;
44536;SDS011;30245;51.966;6.292;2024-01-06T09:59:46;14.80;;;9.23;;
44536;SDS011;30245;51.966;6.292;2024-01-06T10:02:15;17.13;;;9.93;;
44536;SDS011;30245;51.966;6.292;2024-01-06T10:04:42;18.00;;;10.07;;
44536;SDS011;30245;51.966;6.292;2024-01-06T10:07:09;16.83;;;10.13;;
44536;SDS011;30245;51.966;6.292;2024-01-06T10:09:37;14.10;;;7.18;;
44536;SDS011;30245;51.966;6.292;2024-01-06T10:12:03;10.83;;;8.17;;
44536;SDS011;30245;51.966;6.292;2024-01-06T10:14:29;12.70;;;7.70;;
44536;SDS011;30245;51.966;6.292;2024-01-06T10:16:55;14.33;;;7.87;;
44536;SDS011;30245;51.966;6.292;2024-01-06T10:19:20;14.00;;;8.00;;
44536;SDS011;30245;51.966;6.292;2024-01-06T10:21:48;14.40;;;9.00;;
44536;SDS011;30245;51.966;6.292;2024-01-06T10:24:14;11.87;;;7.20;;
44536;SDS011;30245;51.966;6.292;2024-01-06T10:26:39;12.53;;;7.90;;
44536;SDS011;30245;51.966;6.292;2024-01-06T10:29:05;12.87;;;8.57;;
44536;SDS011;30245;51.966;6.292;2024-01-06T10:31:30;11.37;;;7.13;;
44536;SDS011;30245;51.966;6.292;2024-01-06T10:33:56;9.97;;;6.57;;
44536;SDS011;30245;51.966;6.292;2024-01-06T10:36:22;14.77;;;7.67;;
44536;SDS011;30245;51.966;6.292;2024-01-06T10:38:48;11.90;;;7.63;;
44536;SDS011;30245;51.966;6.292;2024-01-06T10:41:15;14.33;;;8.10;;
44536;SDS011;30245;51.966;6.292;2024-01-06T10:43:42;19.33;;;10.13;;
44536;SDS011;30245;51.966;6.292;2024-01-06T10:46:08;12.37;;;8.77;;
44536;SDS011;30245;51.966;6.292;2024-01-06T10:48:39;14.77;;;9.40;;
44536;SDS011;30245;51.966;6.292;2024-01-06T10:51:08;18.63;;;10.43;;
44536;SDS011;30245;51.966;6.292;2024-01-06T10:53:34;15.03;;;10.00;;
44536;SDS011;30245;51.966;6.292;2024-01-06T10:56:02;15.30;;;9.77;;
44536;SDS011;30245;51.966;6.292;2024-01-06T10:58:29;15.93;;;8.87;;
44536;SDS011;30245;51.966;6.292;2024-01-06T11:00:56;13.00;;;9.60;;
44536;SDS011;30245;51.966;6.292;2024-01-06T11:03:22;13.43;;;8.47;;
44536;SDS011;30245;51.966;6.292;2024-01-06T11:05:49;23.40;;;10.83;;
44536;SDS011;30245;51.966;6.292;2024-01-06T11:08:16;13.33;;;8.63;;
44536;SDS011;30245;51.966;6.292;2024-01-06T11:10:42;16.90;;;10.47;;
44536;SDS011;30245;51.966;6.292;2024-01-06T11:13:10;13.30;;;9.90;;
44536;SDS011;30245;51.966;6.292;2024-01-06T11:15:43;15.77;;;9.87;;
44536;SDS011;30245;51.966;6.292;2024-01-06T11:23:51;11.63;;;8.33;;
44536;SDS011;30245;51.966;6.292;2024-01-06T11:26:53;11.37;;;7.43;;
44536;SDS011;30245;51.966;6.292;2024-01-06T11:29:21;11.90;;;7.53;;
44536;SDS011;30245;51.966;6.292;2024-01-06T11:34:51;12.13;;;6.93;;
44536;SDS011;30245;51.966;6.292;2024-01-06T11:37:26;10.73;;;7.80;;
44536;SDS011;30245;51.966;6.292;2024-01-06T11:42:57;14.07;;;8.33;;
44536;SDS011;30245;51.966;6.292;2024-01-06T11:45:24;12.90;;;8.53;;
44536;SDS011;30245;51.966;6.292;2024-01-06T11:47:50;13.23;;;9.17;;
44536;SDS011;30245;51.966;6.292;2024-01-06T11:50:21;11.60;;;8.37;;
44536;SDS011;30245;51.966;6.292;2024-01-06T11:52:48;13.00;;;9.13;;
44536;SDS011;30245;51.966;6.292;2024-01-06T11:55:15;12.67;;;8.70;;
44536;SDS011;30245;51.966;6.292;2024-01-06T11:57:43;13.88;;;9.18;;
44536;SDS011;30245;51.966;6.292;2024-01-06T12:00:09;12.60;;;9.10;;
44536;SDS011;30245;51.966;6.292;2024-01-06T12:02:36;12.37;;;8.63;;
44536;SDS011;30245;51.966;6.292;2024-01-06T12:05:01;9.00;;;7.37;;
44536;SDS011;30245;51.966;6.292;2024-01-06T12:07:27;11.30;;;8.63;;
44536;SDS011;30245;51.966;6.292;2024-01-06T12:10:02;10.70;;;8.03;;
44536;SDS011;30245;51.966;6.292;2024-01-06T12:12:28;12.10;;;8.60;;
44536;SDS011;30245;51.966;6.292;2024-01-06T12:14:54;10.67;;;8.03;;
44536;SDS011;30245;51.966;6.292;2024-01-06T12:17:20;13.97;;;9.17;;
44536;SDS011;30245;51.966;6.292;2024-01-06T12:19:46;9.63;;;8.40;;
44536;SDS011;30245;51.966;6.292;2024-01-06T12:22:13;10.50;;;7.67;;
44536;SDS011;30245;51.966;6.292;2024-01-06T12:24:40;10.80;;;8.40;;
44536;SDS011;30245;51.966;6.292;2024-01-06T12:27:07;8.70;;;6.63;;
44536;SDS011;30245;51.966;6.292;2024-01-06T12:29:37;9.30;;;7.67;;
44536;SDS011;30245;51.966;6.292;2024-01-06T12:32:04;10.03;;;8.23;;
44536;SDS011;30245;51.966;6.292;2024-01-06T12:34:30;8.37;;;7.47;;
44536;SDS011;30245;51.966;6.292;2024-01-06T12:36:55;7.60;;;6.60;;
44536;SDS011;30245;51.966;6.292;2024-01-06T12:39:21;7.83;;;6.57;;
44536;SDS011;30245;51.966;6.292;2024-01-06T12:41:48;10.00;;;6.33;;
44536;SDS011;30245;51.966;6.292;2024-01-06T12:44:16;6.80;;;6.10;;
44536;SDS011;30245;51.966;6.292;2024-01-06T12:46:41;8.63;;;7.73;;
44536;SDS011;30245;51.966;6.292;2024-01-06T12:49:07;9.90;;;7.50;;
44536;SDS011;30245;51.966;6.292;2024-01-06T12:51:33;8.53;;;7.03;;
44536;SDS011;30245;51.966;6.292;2024-01-06T12:53:58;9.27;;;7.00;;
44536;SDS011;30245;51.966;6.292;2024-01-06T12:56:24;8.80;;;7.23;;
44536;SDS011;30245;51.966;6.292;2024-01-06T12:58:49;8.87;;;7.93;;
44536;SDS011;30245;51.966;6.292;2024-01-06T13:01:15;12.80;;;10.43;;
44536;SDS011;30245;51.966;6.292;2024-01-06T13:03:41;11.07;;;8.67;;
44536;SDS011;30245;51.966;6.292;2024-01-06T13:06:06;10.97;;;8.87;;
44536;SDS011;30245;51.966;6.292;2024-01-06T13:08:32;11.60;;;9.30;;
44536;SDS011;30245;51.966;6.292;2024-01-06T13:10:58;10.03;;;9.03;;
44536;SDS011;30245;51.966;6.292;2024-01-06T13:13:23;11.73;;;9.37;;
44536;SDS011;30245;51.966;6.292;2024-01-06T13:15:49;10.20;;;8.87;;
44536;SDS011;30245;51.966;6.292;2024-01-06T13:18:14;9.60;;;7.67;;
44536;SDS011;30245;51.966;6.292;2024-01-06T13:20:42;9.20;;;8.20;;
44536;SDS011;30245;51.966;6.292;2024-01-06T13:23:08;8.03;;;7.20;;
44536;SDS011;30245;51.966;6.292;2024-01-06T13:25:34;10.23;;;8.20;;
44536;SDS011;30245;51.966;6.292;2024-01-06T13:28:00;11.60;;;8.43;;
44536;SDS011;30245;51.966;6.292;2024-01-06T13:30:26;9.10;;;8.13;;
44536;SDS011;30245;51.966;6.292;2024-01-06T13:32:52;13.33;;;11.00;;
44536;SDS011;30245;51.966;6.292;2024-01-06T13:35:22;11.13;;;9.20;;
44536;SDS011;30245;51.966;6.292;2024-01-06T13:37:50;9.63;;;8.07;;
44536;SDS011;30245;51.966;6.292;2024-01-06T13:40:16;10.43;;;8.03;;
44536;SDS011;30245;51.966;6.292;2024-01-06T13:42:46;12.83;;;8.87;;
44536;SDS011;30245;51.966;6.292;2024-01-06T13:45:19;11.57;;;10.23;;
44536;SDS011;30245;51.966;6.292;2024-01-06T13:47:44;12.53;;;10.23;;
44536;SDS011;30245;51.966;6.292;2024-01-06T13:50:15;14.80;;;9.90;;
44536;SDS011;30245;51.966;6.292;2024-01-06T13:52:42;12.90;;;10.60;;
44536;SDS011;30245;51.966;6.292;2024-01-06T13:55:08;13.77;;;10.33;;
44536;SDS011;30245;51.966;6.292;2024-01-06T13:57:35;13.70;;;9.47;;
44536;SDS011;30245;51.966;6.292;2024-01-06T14:00:06;12.13;;;9.37;;
44536;SDS011;30245;51.966;6.292;2024-01-06T14:02:32;12.97;;;10.17;;
44536;SDS011;30245;51.966;6.292;2024-01-06T14:04:58;11.83;;;9.07;;
44536;SDS011;30245;51.966;6.292;2024-01-06T14:07:24;11.07;;;9.73;;
44536;SDS011;30245;51.966;6.292;2024-01-06T14:09:50;12.73;;;9.90;;
44536;SDS011;30245;51.966;6.292;2024-01-06T14:12:15;12.13;;;10.27;;
44536;SDS011;30245;51.966;6.292;2024-01-06T14:14:41;13.90;;;11.03;;
44536;SDS011;30245;51.966;6.292;2024-01-06T14:17:07;12.67;;;10.27;;
44536;SDS011;30245;51.966;6.292;2024-01-06T14:19:33;12.47;;;9.70;;
44536;SDS011;30245;51.966;6.292;2024-01-06T14:21:58;12.00;;;9.37;;
44536;SDS011;30245;51.966;6.292;2024-01-06T14:24:24;11.90;;;9.77;;
44536;SDS011;30245;51.966;6.292;2024-01-06T14:26:50;10.33;;;8.87;;
44536;SDS011;30245;51.966;6.292;2024-01-06T14:29:16;11.50;;;8.63;;
44536;SDS011;30245;51.966;6.292;2024-01-06T14:31:42;11.73;;;9.03;;
44536;SDS011;30245;51.966;6.292;2024-01-06T14:34:08;11.17;;;9.40;;
44536;SDS011;30245;51.966;6.292;2024-01-06T14:36:34;11.47;;;9.20;;
44536;SDS011;30245;51.966;6.292;2024-01-06T14:38:59;11.80;;;8.93;;